sensor_id;sensor_type;location;lat;lon;timestamp;P1;durP1;ratioP1;P2;durP2;ratioP2
19575;SDS011;41589;51.196;7.074;2023-08-30T00:03:25;2.00;;;1.90;;
19575;SDS011;41589;51.196;7.074;2023-08-30T00:08:25;2.60;;;2.50;;
19575;SDS011;41589;51.196;7.074;2023-08-30T00:13:26;2.67;;;2.57;;
19575;SDS011;41589;51.196;7.074;2023-08-30T00:18:26;2.20;;;2.10;;
19575;SDS011;41589;51.196;7.074;2023-08-30T00:23:27;3.10;;;3.00;;
19575;SDS011;41589;51.196;7.074;2023-08-30T00:28:27;2.60;;;2.50;;
19575;SDS011;41589;51.196;7.074;2023-08-30T00:33:27;3.03;;;2.93;;
19575;SDS011;41589;51.196;7.074;2023-08-30T00:38:28;3.30;;;3.10;;
19575;SDS011;41589;51.196;7.074;2023-08-30T00:43:29;4.00;;;3.80;;
19575;SDS011;41589;51.196;7.074;2023-08-30T00:48:29;3.40;;;3.20;;
19575;SDS011;41589;51.196;7.074;2023-08-30T00:53:30;2.60;;;2.50;;
19575;SDS011;41589;51.196;7.074;2023-08-30T00:58:30;2.80;;;2.70;;
19575;SDS011;41589;51.196;7.074;2023-08-30T01:03:31;3.60;;;3.40;;
19575;SDS011;41589;51.196;7.074;2023-08-30T01:08:32;3.23;;;3.13;;
19575;SDS011;41589;51.196;7.074;2023-08-30T01:13:35;3.33;;;3.23;;
19575;SDS011;41589;51.196;7.074;2023-08-30T01:18:42;3.80;;;3.60;;
19575;SDS011;41589;51.196;7.074;2023-08-30T01:23:48;3.67;;;3.47;;
19575;SDS011;41589;51.196;7.074;2023-08-30T01:28:56;3.40;;;3.20;;
19575;SDS011;41589;51.196;7.074;2023-08-30T01:34:01;3.23;;;3.03;;
19575;SDS011;41589;51.196;7.074;2023-08-30T01:39:04;3.00;;;2.90;;
19575;SDS011;41589;51.196;7.074;2023-08-30T01:44:05;2.90;;;2.80;;
19575;SDS011;41589;51.196;7.074;2023-08-30T01:49:07;2.97;;;2.87;;
19575;SDS011;41589;51.196;7.074;2023-08-30T01:54:09;3.43;;;3.23;;
19575;SDS011;41589;51.196;7.074;2023-08-30T01:59:17;3.40;;;3.20;;
19575;SDS011;41589;51.196;7.074;2023-08-30T02:04:17;3.90;;;3.70;;
19575;SDS011;41589;51.196;7.074;2023-08-30T02:09:23;3.87;;;3.67;;
19575;SDS011;41589;51.196;7.074;2023-08-30T02:14:26;4.20;;;3.90;;
19575;SDS011;41589;51.196;7.074;2023-08-30T02:19:28;4.13;;;3.93;;
19575;SDS011;41589;51.196;7.074;2023-08-30T02:24:29;4.60;;;4.33;;
19575;SDS011;41589;51.196;7.074;2023-08-30T02:29:31;4.20;;;4.00;;
19575;SDS011;41589;51.196;7.074;2023-08-30T02:34:32;4.57;;;4.33;;
19575;SDS011;41589;51.196;7.074;2023-08-30T02:39:33;4.23;;;3.93;;
19575;SDS011;41589;51.196;7.074;2023-08-30T02:44:34;4.10;;;3.90;;
19575;SDS011;41589;51.196;7.074;2023-08-30T02:49:35;3.20;;;3.10;;
19575;SDS011;41589;51.196;7.074;2023-08-30T02:54:36;3.73;;;3.53;;
19575;SDS011;41589;51.196;7.074;2023-08-30T02:59:36;4.70;;;4.40;;
19575;SDS011;41589;51.196;7.074;2023-08-30T03:04:40;4.27;;;4.07;;
19575;SDS011;41589;51.196;7.074;2023-08-30T03:09:40;4.30;;;4.10;;
19575;SDS011;41589;51.196;7.074;2023-08-30T03:14:41;4.63;;;4.33;;
19575;SDS011;41589;51.196;7.074;2023-08-30T03:19:41;4.40;;;4.10;;
19575;SDS011;41589;51.196;7.074;2023-08-30T03:24:42;4.17;;;3.97;;
19575;SDS011;41589;51.196;7.074;2023-08-30T03:29:42;4.67;;;4.27;;
19575;SDS011;41589;51.196;7.074;2023-08-30T03:34:46;4.07;;;3.87;;
19575;SDS011;41589;51.196;7.074;2023-08-30T03:39:47;4.10;;;3.90;;
19575;SDS011;41589;51.196;7.074;2023-08-30T03:44:48;4.00;;;3.80;;
19575;SDS011;41589;51.196;7.074;2023-08-30T03:49:48;4.37;;;4.17;;
19575;SDS011;41589;51.196;7.074;2023-08-30T03:54:49;4.57;;;4.20;;
19575;SDS011;41589;51.196;7.074;2023-08-30T03:59:49;4.47;;;4.20;;
19575;SDS011;41589;51.196;7.074;2023-08-30T04:04:49;4.57;;;4.27;;
19575;SDS011;41589;51.196;7.074;2023-08-30T04:09:50;3.90;;;3.70;;
19575;SDS011;41589;51.196;7.074;2023-08-30T04:14:50;4.23;;;4.03;;
19575;SDS011;41589;51.196;7.074;2023-08-30T04:19:52;4.47;;;4.17;;
19575;SDS011;41589;51.196;7.074;2023-08-30T04:24:53;4.70;;;4.43;;
19575;SDS011;41589;51.196;7.074;2023-08-30T04:29:54;5.17;;;4.87;;
19575;SDS011;41589;51.196;7.074;2023-08-30T04:34:54;4.10;;;3.90;;
19575;SDS011;41589;51.196;7.074;2023-08-30T04:39:55;4.83;;;4.60;;
19575;SDS011;41589;51.196;7.074;2023-08-30T04:44:55;4.80;;;4.50;;
19575;SDS011;41589;51.196;7.074;2023-08-30T04:49:57;4.80;;;4.50;;
19575;SDS011;41589;51.196;7.074;2023-08-30T04:54:58;5.30;;;5.00;;
19575;SDS011;41589;51.196;7.074;2023-08-30T05:00:00;4.63;;;4.43;;
19575;SDS011;41589;51.196;7.074;2023-08-30T05:05:07;4.50;;;4.30;;
19575;SDS011;41589;51.196;7.074;2023-08-30T05:19:56;5.47;;;5.17;;
19575;SDS011;41589;51.196;7.074;2023-08-30T05:24:57;4.83;;;4.63;;
19575;SDS011;41589;51.196;7.074;2023-08-30T05:30:01;5.33;;;5.03;;
19575;SDS011;41589;51.196;7.074;2023-08-30T05:35:09;5.63;;;5.33;;
19575;SDS011;41589;51.196;7.074;2023-08-30T05:40:42;4.73;;;4.43;;
19575;SDS011;41589;51.196;7.074;2023-08-30T05:45:48;4.97;;;4.67;;
19575;SDS011;41589;51.196;7.074;2023-08-30T05:50:48;4.97;;;4.57;;
19575;SDS011;41589;51.196;7.074;2023-08-30T05:56:00;4.77;;;4.40;;
19575;SDS011;41589;51.196;7.074;2023-08-30T06:01:01;4.93;;;4.63;;
19575;SDS011;41589;51.196;7.074;2023-08-30T06:06:01;4.17;;;3.97;;
19575;SDS011;41589;51.196;7.074;2023-08-30T06:11:04;4.10;;;3.90;;
19575;SDS011;41589;51.196;7.074;2023-08-30T06:16:05;3.90;;;3.70;;
19575;SDS011;41589;51.196;7.074;2023-08-30T06:21:08;4.30;;;4.00;;
19575;SDS011;41589;51.196;7.074;2023-08-30T06:26:08;3.57;;;3.37;;
19575;SDS011;41589;51.196;7.074;2023-08-30T06:31:18;3.50;;;3.30;;
19575;SDS011;41589;51.196;7.074;2023-08-30T06:36:18;3.30;;;3.10;;
19575;SDS011;41589;51.196;7.074;2023-08-30T06:41:24;2.90;;;2.70;;
19575;SDS011;41589;51.196;7.074;2023-08-30T06:46:25;3.00;;;2.80;;
19575;SDS011;41589;51.196;7.074;2023-08-30T06:51:28;2.87;;;2.77;;
19575;SDS011;41589;51.196;7.074;2023-08-30T06:56:38;2.70;;;2.50;;
19575;SDS011;41589;51.196;7.074;2023-08-30T07:01:38;2.30;;;2.20;;
19575;SDS011;41589;51.196;7.074;2023-08-30T07:06:42;2.40;;;2.30;;
19575;SDS011;41589;51.196;7.074;2023-08-30T07:11:49;2.07;;;1.97;;
19575;SDS011;41589;51.196;7.074;2023-08-30T07:17:08;2.20;;;2.10;;
19575;SDS011;41589;51.196;7.074;2023-08-30T07:22:09;1.93;;;1.83;;
19575;SDS011;41589;51.196;7.074;2023-08-30T07:27:14;1.80;;;1.70;;
19575;SDS011;41589;51.196;7.074;2023-08-30T07:32:18;3.23;;;2.00;;
19575;SDS011;41589;51.196;7.074;2023-08-30T07:37:22;1.67;;;1.60;;
19575;SDS011;41589;51.196;7.074;2023-08-30T07:42:28;1.87;;;1.40;;
19575;SDS011;41589;51.196;7.074;2023-08-30T07:47:31;1.30;;;1.30;;
19575;SDS011;41589;51.196;7.074;2023-08-30T07:52:31;1.40;;;1.30;;
19575;SDS011;41589;51.196;7.074;2023-08-30T07:57:32;1.33;;;1.33;;
19575;SDS011;41589;51.196;7.074;2023-08-30T08:02:35;1.50;;;1.40;;
19575;SDS011;41589;51.196;7.074;2023-08-30T08:07:39;1.30;;;1.20;;
19575;SDS011;41589;51.196;7.074;2023-08-30T08:13:01;1.30;;;1.30;;
19575;SDS011;41589;51.196;7.074;2023-08-30T08:18:04;1.40;;;1.30;;
19575;SDS011;41589;51.196;7.074;2023-08-30T08:23:13;1.10;;;1.10;;
19575;SDS011;41589;51.196;7.074;2023-08-30T08:28:13;1.53;;;1.33;;
19575;SDS011;41589;51.196;7.074;2023-08-30T08:33:17;1.10;;;1.10;;
19575;SDS011;41589;51.196;7.074;2023-08-30T08:38:23;1.30;;;1.30;;
19575;SDS011;41589;51.196;7.074;2023-08-30T08:43:23;1.10;;;1.10;;
19575;SDS011;41589;51.196;7.074;2023-08-30T08:48:24;1.23;;;1.20;;
19575;SDS011;41589;51.196;7.074;2023-08-30T08:53:28;1.30;;;1.30;;
19575;SDS011;41589;51.196;7.074;2023-08-30T08:58:28;1.87;;;1.20;;
19575;SDS011;41589;51.196;7.074;2023-08-30T09:03:33;1.10;;;1.10;;
19575;SDS011;41589;51.196;7.074;2023-08-30T09:08:34;1.10;;;1.10;;
19575;SDS011;41589;51.196;7.074;2023-08-30T09:13:35;1.20;;;1.10;;
19575;SDS011;41589;51.196;7.074;2023-08-30T09:18:35;1.00;;;1.00;;
19575;SDS011;41589;51.196;7.074;2023-08-30T09:23:44;1.53;;;1.20;;
19575;SDS011;41589;51.196;7.074;2023-08-30T09:28:45;1.10;;;1.10;;
19575;SDS011;41589;51.196;7.074;2023-08-30T09:33:45;1.00;;;1.00;;
19575;SDS011;41589;51.196;7.074;2023-08-30T09:38:50;1.20;;;1.10;;
19575;SDS011;41589;51.196;7.074;2023-08-30T09:43:51;1.20;;;1.10;;
19575;SDS011;41589;51.196;7.074;2023-08-30T09:48:53;0.93;;;0.93;;
19575;SDS011;41589;51.196;7.074;2023-08-30T09:53:54;0.83;;;0.83;;
19575;SDS011;41589;51.196;7.074;2023-08-30T09:58:58;2.57;;;1.13;;
19575;SDS011;41589;51.196;7.074;2023-08-30T10:03:59;1.00;;;0.90;;
19575;SDS011;41589;51.196;7.074;2023-08-30T10:09:04;0.93;;;0.93;;
19575;SDS011;41589;51.196;7.074;2023-08-30T10:14:06;0.87;;;0.87;;
19575;SDS011;41589;51.196;7.074;2023-08-30T10:19:09;1.00;;;1.00;;
19575;SDS011;41589;51.196;7.074;2023-08-30T10:24:17;0.93;;;0.90;;
19575;SDS011;41589;51.196;7.074;2023-08-30T10:29:20;1.20;;;1.20;;
19575;SDS011;41589;51.196;7.074;2023-08-30T10:34:21;1.30;;;1.20;;
19575;SDS011;41589;51.196;7.074;2023-08-30T10:39:26;1.10;;;1.10;;
19575;SDS011;41589;51.196;7.074;2023-08-30T10:44:34;1.00;;;1.00;;
19575;SDS011;41589;51.196;7.074;2023-08-30T10:49:39;1.30;;;1.20;;
19575;SDS011;41589;51.196;7.074;2023-08-30T10:54:40;1.43;;;1.40;;
19575;SDS011;41589;51.196;7.074;2023-08-30T11:05:24;1.80;;;1.40;;
19575;SDS011;41589;51.196;7.074;2023-08-30T11:10:25;1.30;;;1.30;;
19575;SDS011;41589;51.196;7.074;2023-08-30T11:15:32;1.60;;;1.50;;
19575;SDS011;41589;51.196;7.074;2023-08-30T11:20:33;1.23;;;1.23;;
19575;SDS011;41589;51.196;7.074;2023-08-30T11:25:40;1.30;;;1.30;;
19575;SDS011;41589;51.196;7.074;2023-08-30T11:30:41;0.90;;;0.90;;
19575;SDS011;41589;51.196;7.074;2023-08-30T11:35:50;0.90;;;0.90;;
19575;SDS011;41589;51.196;7.074;2023-08-30T11:40:51;0.90;;;0.90;;
19575;SDS011;41589;51.196;7.074;2023-08-30T11:45:55;2.03;;;0.80;;
19575;SDS011;41589;51.196;7.074;2023-08-30T11:50:59;0.90;;;0.90;;
19575;SDS011;41589;51.196;7.074;2023-08-30T11:56:01;0.80;;;0.80;;
19575;SDS011;41589;51.196;7.074;2023-08-30T12:01:07;0.87;;;0.87;;
19575;SDS011;41589;51.196;7.074;2023-08-30T12:06:11;0.90;;;0.90;;
19575;SDS011;41589;51.196;7.074;2023-08-30T12:11:18;0.90;;;0.90;;
19575;SDS011;41589;51.196;7.074;2023-08-30T12:16:20;1.00;;;1.00;;
19575;SDS011;41589;51.196;7.074;2023-08-30T12:21:26;1.23;;;1.13;;
19575;SDS011;41589;51.196;7.074;2023-08-30T12:26:31;0.90;;;0.90;;
19575;SDS011;41589;51.196;7.074;2023-08-30T12:31:54;1.27;;;1.27;;
19575;SDS011;41589;51.196;7.074;2023-08-30T12:36:54;1.33;;;1.27;;
19575;SDS011;41589;51.196;7.074;2023-08-30T12:41:55;1.20;;;1.10;;
19575;SDS011;41589;51.196;7.074;2023-08-30T12:47:02;1.00;;;1.00;;
19575;SDS011;41589;51.196;7.074;2023-08-30T12:52:05;1.00;;;1.00;;
19575;SDS011;41589;51.196;7.074;2023-08-30T12:57:08;0.90;;;0.90;;
19575;SDS011;41589;51.196;7.074;2023-08-30T13:02:12;1.00;;;1.00;;
19575;SDS011;41589;51.196;7.074;2023-08-30T13:07:15;1.00;;;1.00;;
19575;SDS011;41589;51.196;7.074;2023-08-30T13:12:21;1.10;;;1.10;;
19575;SDS011;41589;51.196;7.074;2023-08-30T13:17:23;1.13;;;1.10;;
19575;SDS011;41589;51.196;7.074;2023-08-30T13:22:33;0.90;;;0.90;;
19575;SDS011;41589;51.196;7.074;2023-08-30T13:27:34;0.80;;;0.80;;
19575;SDS011;41589;51.196;7.074;2023-08-30T13:32:35;1.00;;;1.00;;
19575;SDS011;41589;51.196;7.074;2023-08-30T13:37:35;0.80;;;0.80;;
19575;SDS011;41589;51.196;7.074;2023-08-30T13:42:40;0.80;;;0.80;;
19575;SDS011;41589;51.196;7.074;2023-08-30T13:47:50;0.80;;;0.80;;
19575;SDS011;41589;51.196;7.074;2023-08-30T13:52:53;0.80;;;0.80;;
19575;SDS011;41589;51.196;7.074;2023-08-30T13:57:53;0.77;;;0.77;;
19575;SDS011;41589;51.196;7.074;2023-08-30T14:02:54;0.80;;;0.80;;
19575;SDS011;41589;51.196;7.074;2023-08-30T14:07:54;0.90;;;0.90;;
19575;SDS011;41589;51.196;7.074;2023-08-30T14:12:54;0.70;;;0.70;;
19575;SDS011;41589;51.196;7.074;2023-08-30T14:17:55;0.90;;;0.90;;
19575;SDS011;41589;51.196;7.074;2023-08-30T14:22:57;0.80;;;0.80;;
19575;SDS011;41589;51.196;7.074;2023-08-30T14:27:58;0.90;;;0.90;;
19575;SDS011;41589;51.196;7.074;2023-08-30T14:32:59;1.00;;;1.00;;
19575;SDS011;41589;51.196;7.074;2023-08-30T14:38:00;0.87;;;0.87;;
19575;SDS011;41589;51.196;7.074;2023-08-30T14:43:01;1.00;;;1.00;;
19575;SDS011;41589;51.196;7.074;2023-08-30T14:48:01;1.10;;;1.10;;
19575;SDS011;41589;51.196;7.074;2023-08-30T14:53:01;0.90;;;0.90;;
19575;SDS011;41589;51.196;7.074;2023-08-30T14:58:02;0.90;;;0.90;;
19575;SDS011;41589;51.196;7.074;2023-08-30T15:03:03;1.13;;;1.03;;
19575;SDS011;41589;51.196;7.074;2023-08-30T15:08:04;1.17;;;1.17;;
19575;SDS011;41589;51.196;7.074;2023-08-30T15:13:05;1.10;;;1.10;;
19575;SDS011;41589;51.196;7.074;2023-08-30T15:18:05;1.30;;;1.30;;
19575;SDS011;41589;51.196;7.074;2023-08-30T15:23:06;1.10;;;1.10;;
19575;SDS011;41589;51.196;7.074;2023-08-30T15:28:06;1.30;;;1.30;;
19575;SDS011;41589;51.196;7.074;2023-08-30T15:33:07;1.30;;;1.20;;
19575;SDS011;41589;51.196;7.074;2023-08-30T15:38:09;1.40;;;1.40;;
19575;SDS011;41589;51.196;7.074;2023-08-30T15:43:10;1.03;;;1.03;;
19575;SDS011;41589;51.196;7.074;2023-08-30T15:48:17;1.00;;;1.00;;
19575;SDS011;41589;51.196;7.074;2023-08-30T15:53:20;1.10;;;1.10;;
19575;SDS011;41589;51.196;7.074;2023-08-30T15:58:23;0.87;;;0.87;;
19575;SDS011;41589;51.196;7.074;2023-08-30T16:03:28;0.90;;;0.90;;
19575;SDS011;41589;51.196;7.074;2023-08-30T16:08:28;0.90;;;0.90;;
19575;SDS011;41589;51.196;7.074;2023-08-30T16:13:28;1.00;;;1.00;;
19575;SDS011;41589;51.196;7.074;2023-08-30T16:18:29;1.10;;;1.10;;
19575;SDS011;41589;51.196;7.074;2023-08-30T16:23:29;1.10;;;1.10;;
19575;SDS011;41589;51.196;7.074;2023-08-30T16:28:31;1.30;;;1.30;;
19575;SDS011;41589;51.196;7.074;2023-08-30T16:33:32;1.60;;;1.50;;
19575;SDS011;41589;51.196;7.074;2023-08-30T16:38:33;1.70;;;1.60;;
19575;SDS011;41589;51.196;7.074;2023-08-30T16:43:34;1.70;;;1.60;;
19575;SDS011;41589;51.196;7.074;2023-08-30T16:48:34;1.87;;;1.77;;
19575;SDS011;41589;51.196;7.074;2023-08-30T16:53:34;1.80;;;1.70;;
19575;SDS011;41589;51.196;7.074;2023-08-30T16:58:35;1.93;;;1.83;;
19575;SDS011;41589;51.196;7.074;2023-08-30T17:03:35;1.80;;;1.70;;
19575;SDS011;41589;51.196;7.074;2023-08-30T17:08:36;1.80;;;1.70;;
19575;SDS011;41589;51.196;7.074;2023-08-30T17:13:37;1.83;;;1.73;;
19575;SDS011;41589;51.196;7.074;2023-08-30T17:18:37;2.00;;;1.90;;
19575;SDS011;41589;51.196;7.074;2023-08-30T17:23:38;1.93;;;1.87;;
19575;SDS011;41589;51.196;7.074;2023-08-30T17:28:39;2.20;;;2.10;;
19575;SDS011;41589;51.196;7.074;2023-08-30T17:33:39;2.00;;;1.90;;
19575;SDS011;41589;51.196;7.074;2023-08-30T17:38:40;2.13;;;1.80;;
19575;SDS011;41589;51.196;7.074;2023-08-30T17:43:40;2.00;;;1.90;;
19575;SDS011;41589;51.196;7.074;2023-08-30T17:48:40;1.93;;;1.83;;
19575;SDS011;41589;51.196;7.074;2023-08-30T17:53:43;2.00;;;1.90;;
19575;SDS011;41589;51.196;7.074;2023-08-30T17:58:48;1.97;;;1.87;;
19575;SDS011;41589;51.196;7.074;2023-08-30T18:03:49;2.13;;;2.03;;
19575;SDS011;41589;51.196;7.074;2023-08-30T18:08:50;1.90;;;1.80;;
19575;SDS011;41589;51.196;7.074;2023-08-30T18:13:50;2.20;;;2.10;;
19575;SDS011;41589;51.196;7.074;2023-08-30T18:18:51;1.50;;;1.50;;
19575;SDS011;41589;51.196;7.074;2023-08-30T18:29:11;1.50;;;1.40;;
19575;SDS011;41589;51.196;7.074;2023-08-30T18:34:12;2.37;;;1.40;;
19575;SDS011;41589;51.196;7.074;2023-08-30T18:39:13;1.30;;;1.30;;
19575;SDS011;41589;51.196;7.074;2023-08-30T18:44:13;1.20;;;1.10;;
19575;SDS011;41589;51.196;7.074;2023-08-30T18:49:14;1.20;;;1.10;;
19575;SDS011;41589;51.196;7.074;2023-08-30T18:54:14;1.40;;;1.30;;
19575;SDS011;41589;51.196;7.074;2023-08-30T18:59:15;1.40;;;1.30;;
19575;SDS011;41589;51.196;7.074;2023-08-30T19:04:15;1.63;;;1.53;;
19575;SDS011;41589;51.196;7.074;2023-08-30T19:09:16;2.10;;;1.40;;
19575;SDS011;41589;51.196;7.074;2023-08-30T19:14:19;1.47;;;1.37;;
19575;SDS011;41589;51.196;7.074;2023-08-30T19:19:19;1.30;;;1.20;;
19575;SDS011;41589;51.196;7.074;2023-08-30T19:24:19;1.27;;;1.27;;
19575;SDS011;41589;51.196;7.074;2023-08-30T19:29:20;1.60;;;1.50;;
19575;SDS011;41589;51.196;7.074;2023-08-30T19:34:21;1.90;;;1.80;;
19575;SDS011;41589;51.196;7.074;2023-08-30T19:39:23;1.50;;;1.37;;
19575;SDS011;41589;51.196;7.074;2023-08-30T19:44:23;1.50;;;1.40;;
19575;SDS011;41589;51.196;7.074;2023-08-30T19:49:24;1.40;;;1.30;;
19575;SDS011;41589;51.196;7.074;2023-08-30T19:54:24;1.87;;;1.40;;
19575;SDS011;41589;51.196;7.074;2023-08-30T19:59:25;1.40;;;1.30;;
19575;SDS011;41589;51.196;7.074;2023-08-30T20:04:25;2.40;;;1.43;;
19575;SDS011;41589;51.196;7.074;2023-08-30T20:09:26;1.40;;;1.30;;
19575;SDS011;41589;51.196;7.074;2023-08-30T20:14:26;1.43;;;1.30;;
19575;SDS011;41589;51.196;7.074;2023-08-30T20:19:27;1.30;;;1.23;;
19575;SDS011;41589;51.196;7.074;2023-08-30T20:24:27;1.53;;;1.37;;
19575;SDS011;41589;51.196;7.074;2023-08-30T20:29:27;1.67;;;1.30;;
19575;SDS011;41589;51.196;7.074;2023-08-30T20:34:28;1.50;;;1.40;;
19575;SDS011;41589;51.196;7.074;2023-08-30T20:39:28;1.20;;;1.20;;
19575;SDS011;41589;51.196;7.074;2023-08-30T20:44:29;1.13;;;1.07;;
19575;SDS011;41589;51.196;7.074;2023-08-30T20:49:30;0.97;;;0.97;;
19575;SDS011;41589;51.196;7.074;2023-08-30T20:54:31;1.30;;;1.20;;
19575;SDS011;41589;51.196;7.074;2023-08-30T20:59:31;1.40;;;1.30;;
19575;SDS011;41589;51.196;7.074;2023-08-30T21:04:32;1.10;;;1.10;;
19575;SDS011;41589;51.196;7.074;2023-08-30T21:09:32;1.53;;;1.20;;
19575;SDS011;41589;51.196;7.074;2023-08-30T21:14:33;1.17;;;1.07;;
19575;SDS011;41589;51.196;7.074;2023-08-30T21:19:33;1.00;;;1.00;;
19575;SDS011;41589;51.196;7.074;2023-08-30T21:24:33;1.30;;;1.20;;
19575;SDS011;41589;51.196;7.074;2023-08-30T21:29:34;1.00;;;0.90;;
19575;SDS011;41589;51.196;7.074;2023-08-30T21:34:35;1.00;;;1.00;;
19575;SDS011;41589;51.196;7.074;2023-08-30T21:39:36;1.00;;;1.00;;
19575;SDS011;41589;51.196;7.074;2023-08-30T21:44:36;0.83;;;0.83;;
19575;SDS011;41589;51.196;7.074;2023-08-30T21:49:37;1.30;;;1.00;;
19575;SDS011;41589;51.196;7.074;2023-08-30T21:54:37;1.20;;;1.10;;
19575;SDS011;41589;51.196;7.074;2023-08-30T21:59:38;0.83;;;0.83;;
19575;SDS011;41589;51.196;7.074;2023-08-30T22:04:41;1.37;;;1.37;;
19575;SDS011;41589;51.196;7.074;2023-08-30T22:09:41;0.90;;;0.90;;
19575;SDS011;41589;51.196;7.074;2023-08-30T22:14:42;1.20;;;1.10;;
19575;SDS011;41589;51.196;7.074;2023-08-30T22:19:44;1.37;;;1.07;;
19575;SDS011;41589;51.196;7.074;2023-08-30T22:24:46;1.17;;;1.07;;
19575;SDS011;41589;51.196;7.074;2023-08-30T22:29:46;1.20;;;1.10;;
19575;SDS011;41589;51.196;7.074;2023-08-30T22:34:46;0.97;;;0.97;;
19575;SDS011;41589;51.196;7.074;2023-08-30T22:39:47;1.00;;;1.00;;
19575;SDS011;41589;51.196;7.074;2023-08-30T22:44:48;0.90;;;0.90;;
19575;SDS011;41589;51.196;7.074;2023-08-30T22:49:52;1.10;;;1.10;;
19575;SDS011;41589;51.196;7.074;2023-08-30T22:54:55;1.10;;;1.10;;
19575;SDS011;41589;51.196;7.074;2023-08-30T22:59:56;1.13;;;1.10;;
19575;SDS011;41589;51.196;7.074;2023-08-30T23:04:57;0.90;;;0.90;;
19575;SDS011;41589;51.196;7.074;2023-08-30T23:09:58;1.10;;;1.00;;
19575;SDS011;41589;51.196;7.074;2023-08-30T23:14:59;0.90;;;0.90;;
19575;SDS011;41589;51.196;7.074;2023-08-30T23:19:59;1.00;;;1.00;;
19575;SDS011;41589;51.196;7.074;2023-08-30T23:24:59;1.30;;;0.97;;
19575;SDS011;41589;51.196;7.074;2023-08-30T23:30:00;1.23;;;0.90;;
19575;SDS011;41589;51.196;7.074;2023-08-30T23:35:03;1.30;;;1.20;;
19575;SDS011;41589;51.196;7.074;2023-08-30T23:40:05;1.20;;;1.10;;
19575;SDS011;41589;51.196;7.074;2023-08-30T23:45:09;1.10;;;1.00;;
19575;SDS011;41589;51.196;7.074;2023-08-30T23:50:10;0.90;;;0.90;;
19575;SDS011;41589;51.196;7.074;2023-08-30T23:55:11;1.10;;;1.10;;
